createdAt,value
2023-02-02T00:04:57.445Z,79.20
2023-02-02T00:09:59.671Z,79.60
2023-02-02T00:15:03.784Z,80.10
2023-02-02T00:20:07.250Z,79.70
2023-02-02T00:25:10.385Z,79.90
2023-02-02T00:30:15.277Z,79.80
2023-02-02T00:35:17.854Z,79.80
2023-02-02T00:40:20.211Z,79.70
2023-02-02T00:45:24.233Z,79.80
2023-02-02T00:50:26.780Z,79.20
2023-02-02T00:55:28.970Z,79.20
2023-02-02T01:00:32.556Z,79.30
2023-02-02T01:05:35.152Z,79.50
2023-02-02T01:10:37.577Z,80.00
2023-02-02T01:15:41.185Z,79.60
2023-02-02T01:20:43.406Z,79.50
2023-02-02T01:25:46.134Z,79.70
2023-02-02T01:30:49.798Z,79.70
2023-02-02T01:35:54.573Z,79.30
2023-02-02T01:40:59.371Z,79.60
2023-02-02T01:46:03.115Z,79.90
2023-02-02T01:51:12.717Z,79.60
2023-02-02T01:56:24.511Z,79.90
2023-02-02T02:01:28.406Z,79.50
2023-02-02T02:06:31.075Z,79.40
2023-02-02T02:11:36.272Z,79.40
2023-02-02T02:16:54.607Z,79.50
2023-02-02T02:22:06.069Z,79.20
2023-02-02T02:27:38.241Z,78.90
2023-02-02T02:32:52.341Z,79.00
2023-02-02T02:38:04.399Z,79.00
2023-02-02T02:43:16.057Z,79.00
2023-02-02T02:48:19.924Z,78.60
2023-02-02T02:53:24.357Z,78.70
2023-02-02T02:58:38.642Z,78.50
2023-02-02T03:04:00.312Z,78.40
2023-02-02T03:09:09.775Z,78.30
2023-02-02T03:14:12.240Z,78.20
2023-02-02T03:19:15.884Z,78.10
2023-02-02T03:24:18.206Z,77.90
2023-02-02T03:29:20.771Z,77.50
2023-02-02T03:34:24.520Z,77.40
2023-02-02T03:39:26.742Z,77.40
2023-02-02T03:44:29.035Z,77.20
2023-02-02T03:49:32.659Z,77.50
2023-02-02T03:54:35.168Z,78.10
2023-02-02T03:59:37.463Z,78.80
2023-02-02T04:04:41.347Z,78.20
2023-02-02T04:09:43.631Z,78.50
2023-02-02T04:14:45.894Z,79.20
2023-02-02T04:19:49.691Z,79.20
2023-02-02T04:24:51.939Z,79.20
2023-02-02T04:29:54.148Z,78.90
2023-02-02T04:34:57.724Z,78.50
2023-02-02T04:39:59.911Z,78.50
2023-02-02T04:45:02.197Z,78.10
2023-02-02T04:50:07.585Z,77.90
2023-02-02T04:55:10.100Z,78.60
2023-02-02T05:00:13.989Z,78.20
2023-02-02T05:05:17.812Z,78.10
2023-02-02T05:10:20.278Z,78.10
2023-02-02T05:15:23.439Z,78.20
2023-02-02T05:20:27.301Z,77.90
2023-02-02T05:25:29.483Z,78.10
2023-02-02T05:30:33.583Z,78.20
2023-02-02T05:35:37.642Z,78.20
2023-02-02T05:40:40.444Z,78.20
2023-02-02T05:45:43.077Z,78.20
2023-02-02T05:50:57.410Z,78.20
2023-02-02T05:56:00.226Z,78.20
2023-02-02T06:01:02.790Z,78.20
2023-02-02T06:06:07.316Z,78.30
2023-02-02T06:11:10.942Z,78.30
2023-02-02T06:16:13.841Z,78.70
2023-02-02T06:21:18.175Z,78.50
2023-02-02T06:26:20.803Z,78.30
2023-02-02T06:31:23.905Z,78.60
2023-02-02T06:36:28.580Z,78.20
2023-02-02T06:41:31.213Z,78.50
2023-02-02T06:46:33.679Z,78.70
2023-02-02T06:51:37.423Z,78.40
2023-02-02T06:56:39.926Z,78.10
2023-02-02T07:01:42.724Z,78.90
2023-02-02T07:06:46.744Z,78.50
2023-02-02T07:11:49.352Z,79.00
2023-02-02T07:16:52.016Z,79.70
2023-02-02T07:21:55.958Z,80.40
2023-02-02T07:26:58.512Z,80.50
2023-02-02T07:32:04.107Z,79.90
2023-02-02T07:37:08.846Z,79.90
2023-02-02T07:42:11.844Z,80.30
2023-02-02T07:47:15.671Z,79.40
2023-02-02T07:52:19.837Z,81.40
2023-02-02T07:57:22.230Z,81.40
2023-02-02T08:02:24.596Z,82.30
2023-02-02T08:07:28.442Z,81.80
2023-02-02T08:12:31.824Z,81.80
2023-02-02T08:17:34.555Z,82.10
2023-02-02T08:22:49.625Z,82.80
2023-02-02T08:27:54.137Z,82.60
2023-02-02T08:32:56.539Z,82.50
2023-02-02T08:38:00.454Z,83.40
2023-02-02T08:43:04.083Z,86.20
2023-02-02T08:48:12.083Z,84.50
2023-02-02T08:53:17.443Z,85.00
2023-02-02T08:58:22.104Z,84.00
2023-02-02T09:03:24.672Z,84.10
2023-02-02T09:08:28.428Z,83.10
2023-02-02T09:13:33.434Z,82.30
2023-02-02T09:18:42.997Z,81.40
2023-02-02T09:23:49.322Z,82.10
2023-02-02T09:28:55.973Z,81.30
2023-02-02T09:34:08.535Z,80.70
2023-02-02T09:39:14.203Z,82.00
2023-02-02T09:44:44.198Z,80.60
2023-02-02T09:50:04.081Z,80.70
2023-02-02T09:55:16.666Z,79.20
2023-02-02T10:00:30.723Z,77.90
2023-02-02T10:05:50.821Z,78.30
2023-02-02T10:11:06.629Z,78.40
2023-02-02T10:16:22.752Z,78.40
2023-02-02T10:21:38.893Z,78.60
2023-02-02T10:26:48.310Z,78.00
2023-02-02T10:32:10.217Z,76.70
2023-02-02T10:37:29.897Z,77.80
2023-02-02T10:42:48.480Z,77.10
2023-02-02T10:47:52.218Z,76.40
2023-02-02T10:53:15.511Z,76.00
2023-02-02T10:58:30.282Z,75.30
2023-02-02T11:03:33.923Z,75.30
2023-02-02T11:08:43.989Z,75.90
2023-02-02T11:13:53.816Z,77.40
2023-02-02T11:18:56.615Z,75.90
2023-02-02T11:24:03.237Z,73.40
2023-02-02T11:29:20.329Z,70.50
2023-02-02T11:34:28.438Z,71.10
2023-02-02T11:39:31.466Z,71.50
2023-02-02T11:44:51.647Z,72.90
2023-02-02T11:50:00.697Z,73.30
2023-02-02T11:55:18.224Z,73.10
2023-02-02T12:00:25.541Z,71.80
2023-02-02T12:05:41.155Z,69.60
2023-02-02T12:10:54.842Z,69.50
2023-02-02T12:16:22.599Z,68.20
2023-02-02T12:21:40.103Z,71.20
2023-02-02T12:26:52.665Z,71.90
2023-02-02T12:32:23.100Z,69.70
2023-02-02T12:37:48.650Z,69.30
2023-02-02T12:43:05.180Z,69.40
2023-02-02T12:48:26.202Z,70.20
2023-02-02T12:54:33.082Z,70.60
2023-02-02T12:59:44.862Z,69.60
2023-02-02T13:05:23.857Z,69.20
2023-02-02T13:10:34.292Z,69.20
2023-02-02T13:15:43.429Z,68.90
2023-02-02T13:20:55.893Z,68.30
2023-02-02T13:26:04.774Z,70.00
2023-02-02T13:31:17.890Z,70.20
2023-02-02T13:36:28.844Z,70.50
2023-02-02T13:41:32.144Z,71.10
2023-02-02T13:46:42.612Z,70.40
2023-02-02T13:51:55.589Z,70.00
2023-02-02T13:57:13.542Z,71.00
2023-02-02T14:02:24.476Z,71.60
2023-02-02T14:08:02.078Z,71.90
2023-02-02T14:13:17.953Z,72.60
2023-02-02T14:18:58.090Z,73.40
2023-02-02T14:24:02.714Z,74.30
2023-02-02T14:29:36.009Z,74.50
2023-02-02T14:34:41.218Z,75.20
2023-02-02T14:39:58.242Z,81.60
2023-02-02T14:45:23.501Z,84.20
2023-02-02T14:50:43.178Z,83.80
2023-02-02T14:56:00.290Z,84.10
2023-02-02T15:01:13.869Z,83.80
2023-02-02T15:06:31.691Z,82.60
2023-02-02T15:12:33.778Z,84.10
2023-02-02T15:18:01.063Z,84.10
2023-02-02T15:23:24.329Z,84.70
2023-02-02T15:28:42.370Z,84.40
2023-02-02T15:33:49.484Z,83.30
2023-02-02T15:38:59.764Z,82.30
2023-02-02T15:44:02.559Z,84.10
2023-02-02T15:49:34.308Z,84.90
2023-02-02T15:54:52.297Z,85.30
2023-02-02T15:59:56.106Z,85.70
2023-02-02T16:04:58.690Z,84.70
2023-02-02T16:10:08.363Z,84.60
2023-02-02T16:15:21.483Z,83.30
2023-02-02T16:20:23.974Z,83.50
2023-02-02T16:25:32.523Z,81.70
2023-02-02T16:30:39.288Z,81.50
2023-02-02T16:35:41.790Z,81.10
2023-02-02T16:40:46.359Z,81.00
2023-02-02T16:45:56.159Z,79.50
2023-02-02T16:51:26.123Z,79.40
2023-02-02T16:56:35.796Z,79.50
2023-02-02T17:01:43.876Z,79.00
2023-02-02T17:06:52.741Z,79.90
2023-02-02T17:12:01.207Z,79.40
2023-02-02T17:17:06.767Z,79.60
2023-02-02T17:22:10.274Z,79.50
2023-02-02T17:27:29.305Z,80.00
2023-02-02T17:32:31.719Z,79.20
2023-02-02T17:37:34.103Z,79.60
2023-02-02T17:42:38.033Z,80.10
2023-02-02T17:47:40.638Z,80.70
2023-02-02T17:52:43.643Z,81.20
2023-02-02T17:57:48.799Z,80.90
2023-02-02T18:02:56.956Z,80.60
2023-02-02T18:07:59.458Z,80.20
2023-02-02T18:13:03.333Z,79.70
2023-02-02T18:18:05.792Z,80.00
2023-02-02T18:23:08.592Z,80.00
2023-02-02T18:28:12.447Z,79.70
2023-02-02T18:33:16.283Z,78.00
2023-02-02T18:38:18.544Z,78.00
2023-02-02T18:43:22.228Z,77.50
2023-02-02T18:48:24.437Z,77.80
2023-02-02T18:53:26.785Z,76.40
2023-02-02T18:58:32.215Z,76.90
2023-02-02T19:03:34.935Z,76.90
2023-02-02T19:08:37.276Z,77.10
2023-02-02T19:13:40.978Z,77.70
2023-02-02T19:18:43.468Z,77.40
2023-02-02T19:23:47.187Z,77.60
2023-02-02T19:29:00.458Z,77.10
2023-02-02T19:34:21.337Z,77.70
2023-02-02T19:44:58.426Z,77.40
2023-02-02T19:50:19.424Z,77.20
2023-02-02T19:55:27.102Z,77.20
2023-02-02T20:00:33.015Z,77.20
2023-02-02T20:05:39.379Z,77.20
2023-02-02T20:10:43.815Z,77.90
2023-02-02T20:15:50.643Z,77.80
2023-02-02T20:20:56.225Z,77.40
2023-02-02T20:26:02.210Z,76.60
2023-02-02T20:31:09.169Z,76.20
2023-02-02T20:36:35.105Z,76.30
2023-02-02T20:41:38.121Z,75.70
2023-02-02T20:46:43.134Z,77.10
2023-02-02T20:51:47.597Z,76.80
2023-02-02T20:56:51.442Z,76.50
2023-02-02T21:01:55.177Z,76.20
2023-02-02T21:06:58.514Z,75.90
2023-02-02T21:12:00.913Z,75.00
2023-02-02T21:17:14.514Z,75.00
2023-02-02T21:22:17.715Z,74.90
2023-02-02T21:27:20.482Z,73.80
2023-02-02T21:32:24.109Z,74.50
2023-02-02T21:37:26.571Z,74.60
2023-02-02T21:42:33.554Z,73.90
2023-02-02T21:47:45.333Z,72.70
2023-02-02T21:52:47.551Z,74.10
2023-02-02T21:57:49.782Z,73.80
2023-02-02T22:02:53.637Z,73.50
2023-02-02T22:07:59.161Z,74.10
2023-02-02T22:13:01.896Z,73.30
2023-02-02T22:18:15.769Z,73.70
2023-02-02T22:23:20.559Z,74.30
2023-02-02T22:28:24.980Z,73.90
2023-02-02T22:33:28.521Z,73.50
2023-02-02T22:38:30.786Z,74.40
2023-02-02T22:43:33.109Z,74.20
2023-02-02T22:48:37.273Z,73.50
2023-02-02T22:53:39.692Z,73.40
2023-02-02T22:58:41.970Z,74.20
2023-02-02T23:03:45.643Z,73.80
2023-02-02T23:08:47.876Z,73.60
2023-02-02T23:13:50.180Z,73.90
2023-02-02T23:18:53.673Z,73.60
2023-02-02T23:23:55.933Z,73.20
2023-02-02T23:28:58.167Z,72.60
2023-02-02T23:34:01.800Z,72.20
2023-02-02T23:39:04.253Z,73.10
2023-02-02T23:44:06.453Z,72.90
2023-02-02T23:49:10.376Z,73.10
2023-02-02T23:54:14.574Z,72.90
2023-02-02T23:59:16.816Z,72.90
